Time;durP1;ratioP1;P1;durP2;ratioP2;P2;SDS_P1;SDS_P2;PMS_P1;PMS_P2;Temp;Humidity;BMP_temperature;BMP_pressure;BME280_temperature;BME280_humidity;BME280_pressure;Samples;Min_cycle;Max_cycle;Signal;HPM_P1;HPM_P2
2023/07/15 00:00:18;;;;;;;6.32;3.80;;;18.00;99.90;;;;;;5094861;28;20661;-82
2023/07/15 00:02:46;;;;;;;4.82;4.10;;;17.90;99.90;;;;;;5091789;28;20267;-81
2023/07/15 00:05:21;;;;;;;5.25;3.72;;;17.90;99.90;;;;;;5094423;28;20682;-80
2023/07/15 00:07:48;;;;;;;4.53;3.40;;;17.20;99.90;;;;;;5094648;28;20251;-81
2023/07/15 00:10:21;;;;;;;7.50;3.92;;;17.00;99.90;;;;;;5094899;28;20723;-80
2023/07/15 00:12:48;;;;;;;5.68;3.50;;;17.20;99.90;;;;;;5094704;28;20253;-80
2023/07/15 00:15:15;;;;;;;4.78;3.88;;;17.20;99.90;;;;;;5093466;28;20284;-81
2023/07/15 00:17:42;;;;;;;4.57;3.50;;;17.30;99.90;;;;;;5096308;28;20209;-80
2023/07/15 00:20:14;;;;;;;7.05;3.45;;;17.30;99.90;;;;;;5097237;28;20189;-80
2023/07/15 00:22:43;;;;;;;7.03;3.85;;;17.20;99.90;;;;;;5097565;28;20243;-80
2023/07/15 00:25:13;;;;;;;5.10;3.70;;;17.00;99.90;;;;;;5098016;28;20210;-81
2023/07/15 00:27:41;;;;;;;6.80;3.70;;;17.00;99.90;;;;;;5077319;28;20229;-80
2023/07/15 00:30:09;;;;;;;5.55;3.75;;;17.20;99.90;;;;;;5082652;28;20205;-81
2023/07/15 00:32:36;;;;;;;5.43;4.15;;;17.30;99.90;;;;;;5097748;28;20592;-82
2023/07/15 00:35:03;;;;;;;5.75;3.97;;;17.10;99.90;;;;;;5097790;28;20592;-81
2023/07/15 00:37:30;;;;;;;5.07;3.53;;;17.10;99.90;;;;;;5097083;28;20331;-81
2023/07/15 00:39:56;;;;;;;5.35;3.97;;;17.00;99.90;;;;;;5097279;28;20198;-81
2023/07/15 00:42:51;;;;;;;4.68;3.70;;;16.80;99.90;;;;;;5090549;28;20218;-80
2023/07/15 00:45:17;;;;;;;5.35;3.97;;;16.60;99.90;;;;;;5000122;28;20197;-81
2023/07/15 00:47:52;;;;;;;5.13;3.60;;;16.60;99.90;;;;;;5080997;28;20225;-81
2023/07/15 00:50:19;;;;;;;6.72;4.28;;;16.70;99.90;;;;;;5081326;28;20636;-81
2023/07/15 00:52:46;;;;;;;6.45;4.22;;;16.80;99.90;;;;;;5088909;28;20218;-81
2023/07/15 00:55:14;;;;;;;9.43;3.80;;;16.70;99.90;;;;;;5097733;28;20245;-81
2023/07/15 00:57:41;;;;;;;6.05;4.20;;;16.70;99.90;;;;;;5089829;28;20197;-80
2023/07/15 01:00:10;;;;;;;5.35;3.83;;;16.80;99.90;;;;;;5097320;28;20213;-79
2023/07/15 01:02:38;;;;;;;5.72;3.63;;;16.80;99.90;;;;;;5096351;28;20316;-81
2023/07/15 01:05:08;;;;;;;6.88;4.32;;;16.80;99.90;;;;;;5091045;28;20649;-81
2023/07/15 01:07:35;;;;;;;7.65;3.75;;;16.60;99.90;;;;;;5084498;28;20214;-81
2023/07/15 01:10:02;;;;;;;5.85;3.92;;;16.50;99.90;;;;;;5083449;28;20204;-80
2023/07/15 01:12:32;;;;;;;6.60;3.70;;;16.40;99.90;;;;;;5079747;28;20704;-80
2023/07/15 01:14:58;;;;;;;5.80;4.20;;;16.40;99.90;;;;;;5085596;28;20682;-80
2023/07/15 01:17:25;;;;;;;5.38;3.58;;;16.30;99.90;;;;;;5076495;28;20202;-80
2023/07/15 01:19:53;;;;;;;6.90;3.97;;;16.10;99.90;;;;;;5077115;28;20198;-80
2023/07/15 01:22:22;;;;;;;4.47;3.88;;;16.10;99.90;;;;;;5076460;28;20248;-81
2023/07/15 01:24:50;;;;;;;6.22;4.18;;;16.10;99.90;;;;;;5092185;28;20205;-80
2023/07/15 01:27:17;;;;;;;5.30;3.90;;;16.20;99.90;;;;;;5093002;28;20210;-80
2023/07/15 01:29:44;;;;;;;6.30;4.15;;;16.20;99.90;;;;;;5080734;28;20212;-81
2023/07/15 01:32:11;;;;;;;6.93;3.90;;;16.30;99.90;;;;;;5095982;28;20225;-81
2023/07/15 01:34:37;;;;;;;6.35;4.15;;;16.20;99.90;;;;;;5096363;28;20673;-81
2023/07/15 01:37:05;;;;;;;7.53;3.80;;;16.20;99.90;;;;;;5095704;28;20556;-81
2023/07/15 01:39:33;;;;;;;6.47;3.72;;;16.30;99.90;;;;;;5096580;28;20216;-80
2023/07/15 01:42:01;;;;;;;8.07;4.32;;;16.20;99.90;;;;;;5096074;28;20224;-81
2023/07/15 01:44:28;;;;;;;5.38;4.20;;;16.30;99.90;;;;;;5095982;28;20201;-81
2023/07/15 01:46:55;;;;;;;6.70;3.90;;;16.40;99.90;;;;;;5095660;28;20216;-81
2023/07/15 01:49:21;;;;;;;8.18;4.38;;;16.50;99.90;;;;;;5095591;28;20218;-79
2023/07/15 01:51:49;;;;;;;6.95;3.95;;;16.30;99.90;;;;;;5095770;28;20225;-80
2023/07/15 01:54:16;;;;;;;4.20;3.67;;;16.30;99.90;;;;;;5096025;28;20193;-80
2023/07/15 01:56:42;;;;;;;7.05;4.07;;;16.20;99.90;;;;;;5095271;28;20210;-80
2023/07/15 01:59:11;;;;;;;7.00;3.88;;;16.20;99.90;;;;;;5095681;28;20193;-80
2023/07/15 02:01:40;;;;;;;6.43;3.78;;;16.30;99.90;;;;;;5096085;28;20228;-81
2023/07/15 02:04:07;;;;;;;5.15;3.95;;;16.30;99.90;;;;;;5095816;28;20202;-80
2023/07/15 02:06:33;;;;;;;5.75;3.40;;;16.30;99.90;;;;;;5094708;28;20210;-80
2023/07/15 02:09:00;;;;;;;5.43;4.03;;;16.40;99.90;;;;;;5087239;28;20221;-81
2023/07/15 02:11:27;;;;;;;6.18;3.78;;;16.40;99.90;;;;;;5091367;28;20202;-80
2023/07/15 02:13:54;;;;;;;5.28;3.45;;;16.40;99.90;;;;;;5092150;28;20201;-80
2023/07/15 02:16:22;;;;;;;4.82;3.40;;;16.50;99.90;;;;;;5094594;28;20289;-79
2023/07/15 02:18:49;;;;;;;5.63;3.60;;;16.50;99.90;;;;;;5095534;28;20193;-80
2023/07/15 02:21:16;;;;;;;6.75;3.80;;;16.50;99.90;;;;;;5095150;28;20201;-81
2023/07/15 02:23:43;;;;;;;4.65;3.60;;;16.40;99.90;;;;;;5095831;28;20964;-82
2023/07/15 02:26:10;;;;;;;5.30;3.50;;;16.40;99.90;;;;;;5094891;28;20198;-81
2023/07/15 02:28:37;;;;;;;4.07;3.60;;;16.50;99.90;;;;;;5094915;28;20217;-81
2023/07/15 02:31:04;;;;;;;5.25;4.03;;;16.50;99.90;;;;;;5093280;28;20229;-81
2023/07/15 02:33:32;;;;;;;7.07;3.63;;;16.60;99.90;;;;;;5095485;28;20689;-80
2023/07/15 02:35:59;;;;;;;5.72;4.00;;;16.60;99.90;;;;;;5095246;28;20206;-81
2023/07/15 02:38:25;;;;;;;5.95;3.35;;;16.60;99.90;;;;;;5096598;28;20197;-81
2023/07/15 02:40:52;;;;;;;5.30;3.15;;;17.00;99.90;;;;;;5095358;28;20220;-80
2023/07/15 02:43:19;;;;;;;4.38;3.47;;;16.80;99.90;;;;;;5095457;28;20228;-81
2023/07/15 02:45:48;;;;;;;4.57;3.38;;;16.80;99.90;;;;;;5095447;28;20209;-80
2023/07/15 02:48:14;;;;;;;5.85;3.22;;;16.90;99.90;;;;;;5088313;28;20214;-81
2023/07/15 02:50:44;;;;;;;4.93;3.20;;;16.80;99.90;;;;;;5086296;28;20201;-79
2023/07/15 02:53:10;;;;;;;5.18;3.65;;;16.50;99.90;;;;;;5087651;28;20699;-78
2023/07/15 02:55:37;;;;;;;10.20;4.10;;;16.40;99.90;;;;;;5084948;28;20209;-79
2023/07/15 02:58:05;;;;;;;6.13;3.85;;;16.40;99.90;;;;;;5093027;28;20204;-77
2023/07/15 03:00:31;;;;;;;5.13;3.47;;;16.30;99.90;;;;;;5083423;28;20201;-79
2023/07/15 03:02:58;;;;;;;6.03;3.80;;;16.30;99.90;;;;;;5091928;28;20224;-80
2023/07/15 03:05:25;;;;;;;5.90;3.67;;;16.50;99.90;;;;;;5090687;28;20245;-78
2023/07/15 03:07:53;;;;;;;4.82;3.53;;;16.60;99.90;;;;;;5093381;28;20669;-80
2023/07/15 03:10:20;;;;;;;6.15;3.83;;;16.70;99.90;;;;;;5077545;28;20197;-80
2023/07/15 03:12:48;;;;;;;7.13;3.72;;;16.50;99.90;;;;;;5089178;28;20717;-77
2023/07/15 03:15:16;;;;;;;5.07;3.30;;;16.50;99.90;;;;;;5085887;28;20742;-81
2023/07/15 03:17:43;;;;;;;5.57;3.63;;;16.70;99.90;;;;;;5086255;28;20202;-81
2023/07/15 03:20:14;;;;;;;6.72;3.60;;;16.70;99.90;;;;;;5083276;28;20198;-78
2023/07/15 03:22:41;;;;;;;5.45;3.67;;;16.50;99.90;;;;;;5088400;28;20708;-81
2023/07/15 03:25:10;;;;;;;7.03;3.70;;;16.70;99.90;;;;;;5092670;28;20227;-81
2023/07/15 03:27:37;;;;;;;4.10;3.13;;;17.00;99.90;;;;;;5086528;28;20646;-79
2023/07/15 03:30:07;;;;;;;3.40;3.10;;;17.30;99.90;;;;;;5084120;28;20234;-79
2023/07/15 03:32:34;;;;;;;5.57;3.17;;;17.40;99.90;;;;;;5085489;28;20752;-79
2023/07/15 03:35:02;;;;;;;4.65;3.40;;;17.40;99.90;;;;;;5085823;28;20684;-79
2023/07/15 03:37:29;;;;;;;5.65;3.55;;;17.40;99.90;;;;;;5089908;28;20221;-80
2023/07/15 03:39:56;;;;;;;6.78;3.10;;;17.50;99.90;;;;;;5086723;28;20548;-77
2023/07/15 03:42:25;;;;;;;4.78;2.92;;;17.40;99.90;;;;;;5081684;28;20230;-81
2023/07/15 03:44:52;;;;;;;5.70;2.97;;;17.40;99.90;;;;;;5084178;28;20205;-80
2023/07/15 03:47:18;;;;;;;3.65;2.88;;;17.30;99.90;;;;;;5081759;28;20229;-79
2023/07/15 03:49:45;;;;;;;6.65;3.30;;;17.50;99.90;;;;;;5092165;28;20229;-81
2023/07/15 03:52:12;;;;;;;5.30;2.95;;;17.60;99.90;;;;;;5085565;28;20214;-81
2023/07/15 03:54:39;;;;;;;4.75;2.97;;;17.90;99.90;;;;;;5086759;28;20247;-80
2023/07/15 03:57:06;;;;;;;3.78;2.80;;;18.10;99.90;;;;;;5089351;28;20583;-80
2023/07/15 03:59:34;;;;;;;5.65;3.20;;;18.20;99.90;;;;;;5095347;28;20194;-80
2023/07/15 04:02:01;;;;;;;5.10;3.08;;;18.30;99.90;;;;;;5096592;28;20232;-80
2023/07/15 04:04:28;;;;;;;5.25;3.33;;;18.60;99.90;;;;;;5098538;28;20654;-81
2023/07/15 04:06:56;;;;;;;4.97;3.47;;;18.80;99.90;;;;;;5099437;28;20205;-82
2023/07/15 04:09:23;;;;;;;7.57;3.35;;;18.90;99.90;;;;;;5099844;28;20703;-82
2023/07/15 04:11:50;;;;;;;3.00;2.45;;;19.00;99.90;;;;;;5099246;28;20228;-80
2023/07/15 04:14:17;;;;;;;7.30;3.33;;;19.40;99.90;;;;;;5099930;28;20207;-82
2023/07/15 04:16:46;;;;;;;4.95;2.80;;;19.30;99.90;;;;;;5098966;28;20263;-81
2023/07/15 04:19:13;;;;;;;6.70;3.28;;;19.80;99.90;;;;;;5099575;28;20243;-83
2023/07/15 04:21:40;;;;;;;6.00;3.00;;;19.70;99.90;;;;;;5100025;28;20248;-80
2023/07/15 04:24:07;;;;;;;9.07;4.15;;;20.00;99.90;;;;;;5099367;28;20202;-82
2023/07/15 04:26:34;;;;;;;5.15;3.25;;;20.50;99.90;;;;;;5098375;28;20201;-80
2023/07/15 04:29:00;;;;;;;9.70;4.22;;;21.00;99.90;;;;;;5099254;28;20229;-80
2023/07/15 04:31:27;;;;;;;12.65;3.47;;;20.70;99.90;;;;;;5099011;28;20203;-80
2023/07/15 04:33:56;;;;;;;4.63;3.17;;;20.50;99.90;;;;;;5099054;28;20228;-81
2023/07/15 04:36:23;;;;;;;6.22;3.22;;;20.40;99.90;;;;;;5098173;28;20216;-79
2023/07/15 04:38:50;;;;;;;5.80;3.38;;;20.30;99.90;;;;;;5098120;28;20197;-82
2023/07/15 04:41:17;;;;;;;6.97;4.50;;;20.20;99.90;;;;;;5097798;28;20193;-81
2023/07/15 04:43:44;;;;;;;8.65;4.13;;;20.00;99.90;;;;;;5097662;28;20201;-82
2023/07/15 04:46:11;;;;;;;5.63;2.85;;;19.80;99.90;;;;;;5092611;28;20208;-82
2023/07/15 04:48:39;;;;;;;6.13;2.97;;;19.80;99.90;;;;;;5091785;28;20301;-82
2023/07/15 04:51:07;;;;;;;5.53;3.38;;;19.90;99.90;;;;;;5092467;28;20227;-82
2023/07/15 04:53:34;;;;;;;6.35;3.20;;;20.00;99.90;;;;;;5089494;28;20229;-82
2023/07/15 04:56:02;;;;;;;6.22;3.15;;;20.10;99.90;;;;;;5087481;28;20249;-84
2023/07/15 04:58:29;;;;;;;6.10;3.13;;;20.30;99.90;;;;;;5090218;28;20201;-81
2023/07/15 05:00:55;;;;;;;5.57;3.25;;;20.40;99.90;;;;;;5094261;28;20198;-80
2023/07/15 05:03:22;;;;;;;5.47;3.30;;;20.40;99.90;;;;;;5091917;28;20222;-80
2023/07/15 05:05:49;;;;;;;8.13;3.42;;;20.50;99.90;;;;;;5091607;28;20202;-80
2023/07/15 05:08:20;;;;;;;5.43;3.03;;;20.80;99.90;;;;;;5085111;28;20202;-80
2023/07/15 05:10:48;;;;;;;5.55;2.90;;;20.70;99.90;;;;;;5095041;28;20222;-80
2023/07/15 05:13:15;;;;;;;4.60;2.90;;;20.90;99.90;;;;;;5083380;28;20705;-81
2023/07/15 05:15:43;;;;;;;4.25;3.10;;;20.90;99.90;;;;;;5085216;28;20285;-80
2023/07/15 05:18:10;;;;;;;6.22;3.05;;;21.10;99.90;;;;;;5092243;28;20197;-82
2023/07/15 05:20:38;;;;;;;4.80;2.80;;;21.30;99.90;;;;;;5086640;28;20194;-81
2023/07/15 05:23:06;;;;;;;3.70;2.60;;;21.20;99.90;;;;;;5088234;28;20213;-82
2023/07/15 05:25:34;;;;;;;6.95;2.90;;;21.30;99.90;;;;;;5077089;28;20666;-81
2023/07/15 05:28:01;;;;;;;2.65;2.45;;;21.50;99.90;;;;;;5086332;28;20206;-81
2023/07/15 05:30:29;;;;;;;6.32;2.72;;;21.70;99.90;;;;;;5086816;28;20230;-82
2023/07/15 05:32:56;;;;;;;3.03;2.72;;;21.40;99.90;;;;;;5083274;28;20253;-81
2023/07/15 05:35:22;;;;;;;6.55;3.13;;;21.60;99.90;;;;;;5082565;28;20200;-82
2023/07/15 05:37:49;;;;;;;3.88;2.70;;;22.10;99.90;;;;;;5088594;28;20205;-84
2023/07/15 05:40:17;;;;;;;5.70;3.15;;;22.30;99.90;;;;;;5091426;28;20244;-81
2023/07/15 05:42:45;;;;;;;3.67;3.03;;;22.30;99.90;;;;;;5080982;28;20275;-80
2023/07/15 05:45:13;;;;;;;6.47;3.08;;;22.20;99.90;;;;;;5095053;28;20194;-82
2023/07/15 05:47:40;;;;;;;5.65;2.88;;;22.00;99.90;;;;;;5091726;28;20709;-80
2023/07/15 05:50:08;;;;;;;4.28;2.92;;;22.00;99.90;;;;;;5090815;28;20245;-79
2023/07/15 05:52:35;;;;;;;2.80;2.60;;;22.10;99.90;;;;;;5084030;28;20308;-80
2023/07/15 05:55:04;;;;;;;4.55;3.28;;;22.40;99.90;;;;;;5084511;28;20200;-82
2023/07/15 05:57:31;;;;;;;3.35;2.60;;;22.40;99.90;;;;;;5088989;28;20285;-83
2023/07/15 06:00:00;;;;;;;3.40;2.80;;;22.70;99.90;;;;;;5092174;28;20714;-82
2023/07/15 06:02:27;;;;;;;3.75;2.60;;;23.20;99.90;;;;;;5089193;28;20590;-84
2023/07/15 06:04:54;;;;;;;4.45;2.90;;;22.80;99.90;;;;;;5087554;28;20311;-83
2023/07/15 06:07:21;;;;;;;5.25;3.25;;;22.90;99.90;;;;;;5083671;28;20212;-83
2023/07/15 06:09:51;;;;;;;4.35;3.10;;;22.80;99.90;;;;;;5086232;28;20214;-82
2023/07/15 06:12:19;;;;;;;4.55;2.67;;;22.80;99.90;;;;;;5085581;28;20625;-85
2023/07/15 06:14:46;;;;;;;6.10;3.50;;;22.80;99.90;;;;;;5092824;28;20216;-83
2023/07/15 06:17:14;;;;;;;4.75;2.67;;;22.70;99.90;;;;;;5085431;28;20286;-83
2023/07/15 06:19:44;;;;;;;3.65;2.88;;;22.80;99.90;;;;;;5078154;28;20206;-84
2023/07/15 06:22:11;;;;;;;3.42;2.80;;;22.80;99.90;;;;;;5092498;28;20231;-83
2023/07/15 06:24:38;;;;;;;3.63;2.72;;;22.90;99.90;;;;;;5084895;28;20213;-83
2023/07/15 06:27:05;;;;;;;5.95;2.55;;;23.00;99.90;;;;;;5090844;28;20217;-81
2023/07/15 06:29:32;;;;;;;2.90;2.45;;;22.90;99.90;;;;;;5091179;28;20585;-83
2023/07/15 06:31:59;;;;;;;3.22;2.70;;;23.00;99.90;;;;;;5078767;28;20596;-83
2023/07/15 06:34:28;;;;;;;4.80;2.50;;;23.00;99.90;;;;;;5081689;28;20289;-84
2023/07/15 06:36:55;;;;;;;4.75;2.70;;;23.10;99.90;;;;;;5091642;28;20794;-84
2023/07/15 06:39:22;;;;;;;4.20;2.90;;;23.20;99.90;;;;;;5087649;28;20200;-84
2023/07/15 06:41:48;;;;;;;4.00;2.92;;;23.30;99.90;;;;;;5089594;28;20225;-83
2023/07/15 06:44:15;;;;;;;3.53;2.75;;;23.20;99.90;;;;;;5089586;28;20688;-82
2023/07/15 06:46:42;;;;;;;3.67;2.78;;;23.40;99.90;;;;;;5079280;28;20216;-83
2023/07/15 06:49:09;;;;;;;3.05;2.50;;;23.40;99.90;;;;;;5092992;28;20198;-83
2023/07/15 06:51:37;;;;;;;3.72;2.88;;;23.50;99.90;;;;;;5093548;28;20654;-83
2023/07/15 06:54:04;;;;;;;5.57;3.08;;;23.60;99.90;;;;;;5079987;28;20229;-82
2023/07/15 06:56:31;;;;;;;5.18;2.92;;;23.70;99.90;;;;;;5072185;28;20225;-84
2023/07/15 06:58:58;;;;;;;5.65;2.60;;;23.70;99.90;;;;;;5072420;28;20202;-80
2023/07/15 07:01:25;;;;;;;4.15;2.80;;;23.80;99.90;;;;;;5071921;28;20201;-82
2023/07/15 07:03:52;;;;;;;5.38;3.00;;;23.80;99.90;;;;;;5093344;28;20571;-85
2023/07/15 07:06:19;;;;;;;7.30;3.08;;;23.90;99.90;;;;;;5093003;28;20516;-84
2023/07/15 07:08:47;;;;;;;5.50;2.67;;;24.10;99.90;;;;;;5093495;28;20284;-83
2023/07/15 07:11:14;;;;;;;2.83;2.60;;;24.10;99.90;;;;;;5092741;28;20663;-81
2023/07/15 07:13:41;;;;;;;3.72;2.70;;;24.00;99.90;;;;;;5093597;28;20292;-83
2023/07/15 07:16:08;;;;;;;2.63;2.42;;;24.30;99.90;;;;;;5092727;28;20212;-82
2023/07/15 07:18:35;;;;;;;2.83;2.50;;;24.40;99.90;;;;;;5093624;28;20363;-83
2023/07/15 07:21:02;;;;;;;3.75;2.72;;;24.30;99.90;;;;;;5092850;28;20206;-83
2023/07/15 07:23:30;;;;;;;4.68;2.90;;;24.60;99.90;;;;;;5092478;28;20312;-83
2023/07/15 07:25:58;;;;;;;3.10;2.80;;;24.70;99.90;;;;;;5091544;28;20600;-83
2023/07/15 07:28:39;;;;;;;3.22;2.60;;;24.70;99.90;;;;;;5079886;28;20204;-83
2023/07/15 07:31:06;;;;;;;4.25;2.47;;;24.70;99.90;;;;;;5081871;28;20217;-83
2023/07/15 07:33:33;;;;;;;2.60;2.40;;;24.70;99.90;;;;;;5079797;28;20588;-82
2023/07/15 07:36:00;;;;;;;4.45;3.00;;;24.80;99.90;;;;;;5091877;28;20206;-84
2023/07/15 07:38:27;;;;;;;4.15;2.72;;;24.90;99.90;;;;;;5075724;28;20658;-84
2023/07/15 07:40:53;;;;;;;4.03;2.58;;;25.00;99.90;;;;;;5076001;28;20202;-81
2023/07/15 07:43:21;;;;;;;2.50;2.30;;;25.20;99.90;;;;;;5079640;28;20220;-83
2023/07/15 07:45:48;;;;;;;3.38;2.60;;;25.10;99.90;;;;;;5075889;28;20198;-80
2023/07/15 07:48:15;;;;;;;3.45;2.85;;;25.20;99.90;;;;;;5076606;28;20293;-85
2023/07/15 07:50:42;;;;;;;2.92;2.65;;;25.30;99.90;;;;;;5090363;28;20221;-84
2023/07/15 07:53:09;;;;;;;3.78;2.88;;;25.30;99.90;;;;;;5096085;28;20225;-84
2023/07/15 07:55:36;;;;;;;5.38;3.10;;;25.30;99.90;;;;;;5096247;28;20198;-84
2023/07/15 07:58:03;;;;;;;3.97;2.80;;;25.40;99.90;;;;;;5096135;28;20561;-81
2023/07/15 08:00:31;;;;;;;3.35;2.63;;;25.60;99.90;;;;;;5092198;28;20226;-84
2023/07/15 08:02:58;;;;;;;3.15;2.83;;;25.60;99.90;;;;;;5087286;28;20263;-84
2023/07/15 08:05:24;;;;;;;4.68;2.88;;;25.50;99.90;;;;;;5097439;28;20201;-83
2023/07/15 08:07:51;;;;;;;4.07;2.70;;;25.70;99.90;;;;;;5097487;28;20205;-81
2023/07/15 08:10:18;;;;;;;4.18;2.55;;;25.90;99.90;;;;;;5097571;28;20214;-83
2023/07/15 08:12:45;;;;;;;5.65;3.03;;;26.00;99.90;;;;;;5097503;28;20312;-83
2023/07/15 08:15:12;;;;;;;4.30;2.92;;;26.10;99.90;;;;;;5096536;28;20209;-82
2023/07/15 08:17:40;;;;;;;4.40;2.60;;;26.10;99.90;;;;;;5095867;28;20236;-82
2023/07/15 08:20:09;;;;;;;4.68;2.63;;;26.00;99.90;;;;;;5097455;28;20204;-81
2023/07/15 08:22:35;;;;;;;3.22;2.78;;;26.10;99.90;;;;;;5096761;28;20640;-83
2023/07/15 08:25:03;;;;;;;4.50;3.00;;;26.30;99.80;;;;;;5098720;28;20232;-83
2023/07/15 08:27:30;;;;;;;6.13;2.92;;;26.30;99.90;;;;;;5098239;28;20558;-82
2023/07/15 08:29:57;;;;;;;5.45;3.00;;;26.30;99.90;;;;;;5096964;28;20217;-83
2023/07/15 08:32:23;;;;;;;3.95;2.85;;;26.40;99.90;;;;;;5098240;28;20228;-81
2023/07/15 08:35:02;;;;;;;2.90;2.70;;;26.40;99.90;;;;;;5097593;28;20198;-83
2023/07/15 08:37:29;;;;;;;4.82;3.00;;;26.40;99.90;;;;;;5096681;28;20193;-80
2023/07/15 08:39:56;;;;;;;3.05;2.70;;;26.60;99.90;;;;;;5097628;28;20221;-80
2023/07/15 08:42:24;;;;;;;4.00;2.60;;;26.70;99.90;;;;;;5097695;28;20308;-82
2023/07/15 08:44:52;;;;;;;4.20;2.60;;;26.80;99.90;;;;;;5097738;28;20296;-84
2023/07/15 08:47:22;;;;;;;5.30;2.67;;;26.90;99.90;;;;;;5096990;28;20284;-83
2023/07/15 08:49:49;;;;;;;3.30;3.00;;;27.00;99.90;;;;;;5097385;28;20760;-83
2023/07/15 08:52:19;;;;;;;3.92;2.65;;;27.10;99.90;;;;;;5097789;28;20312;-80
2023/07/15 08:54:49;;;;;;;3.92;2.60;;;27.10;99.90;;;;;;5097872;28;20190;-82
2023/07/15 08:57:17;;;;;;;2.97;2.60;;;27.40;99.90;;;;;;5094577;28;20205;-82
2023/07/15 08:59:44;;;;;;;4.25;2.90;;;27.70;99.90;;;;;;5084967;28;20288;-82
2023/07/15 09:02:10;;;;;;;3.63;2.85;;;27.90;95.30;;;;;;5088315;28;20218;-81
2023/07/15 09:04:38;;;;;;;3.35;2.70;;;28.20;92.40;;;;;;5076979;28;20289;-82
2023/07/15 09:07:06;;;;;;;4.95;2.88;;;28.50;73.90;;;;;;5092995;28;20206;-81
2023/07/15 09:09:35;;;;;;;4.55;2.42;;;29.20;93.40;;;;;;5080538;28;20237;-82
2023/07/15 09:12:03;;;;;;;4.15;2.67;;;29.30;55.70;;;;;;5090462;28;20296;-81
2023/07/15 09:14:30;;;;;;;2.65;2.33;;;29.40;52.40;;;;;;5076775;28;20206;-82
2023/07/15 09:16:59;;;;;;;2.75;2.55;;;29.40;56.60;;;;;;5086646;28;20208;-81
2023/07/15 09:19:28;;;;;;;4.10;2.72;;;29.20;55.60;;;;;;5081737;28;20293;-82
2023/07/15 09:22:04;;;;;;;4.20;2.80;;;29.40;53.50;;;;;;5090129;28;20226;-81
2023/07/15 09:24:32;;;;;;;2.92;2.70;;;30.20;70.50;;;;;;5096486;28;20228;-81
2023/07/15 09:27:02;;;;;;;4.10;2.63;;;29.90;46.60;;;;;;5095432;28;20205;-81
2023/07/15 09:29:29;;;;;;;3.03;2.50;;;29.60;59.70;;;;;;5080999;28;20202;-82
2023/07/15 09:31:56;;;;;;;4.03;2.88;;;29.70;86.30;;;;;;5079100;28;20278;-81
2023/07/15 09:34:24;;;;;;;7.38;3.20;;;30.20;66.90;;;;;;5097112;28;20200;-83
2023/07/15 09:36:51;;;;;;;3.38;3.00;;;30.60;77.80;;;;;;5096266;28;20292;-82
2023/07/15 09:39:19;;;;;;;4.07;2.40;;;30.90;8.00;;;;;;5096742;28;20208;-80
2023/07/15 09:42:01;;;;;;;2.58;2.38;;;31.10;16.80;;;;;;5097064;28;20287;-83
2023/07/15 09:44:38;;;;;;;3.53;2.78;;;31.10;1.00;;;;;;5096996;28;20213;-82
2023/07/15 09:47:06;;;;;;;5.80;2.70;;;32.00;23.80;;;;;;5096985;28;20205;-84
2023/07/15 09:49:34;;;;;;;4.18;2.53;;;32.20;1.00;;;;;;5095313;28;20201;-81
2023/07/15 09:52:03;;;;;;;2.40;2.20;;;31.90;1.00;;;;;;5093753;28;20227;-82
2023/07/15 09:54:33;;;;;;;2.58;2.20;;;31.70;1.00;;;;;;5096759;28;20201;-80
2023/07/15 09:57:04;;;;;;;3.58;2.63;;;31.00;1.00;;;;;;5096084;28;20244;-84
2023/07/15 09:59:41;;;;;;;3.28;2.60;;;31.00;1.00;;;;;;5096971;28;20295;-83
2023/07/15 10:02:18;;;;;;;3.00;2.50;;;30.50;1.00;;;;;;5095431;28;20248;-83
2023/07/15 10:04:47;;;;;;;2.83;2.30;;;30.20;1.00;;;;;;5096034;28;20688;-83
2023/07/15 10:07:14;;;;;;;4.70;2.67;;;30.10;1.00;;;;;;5094897;28;20193;-83
2023/07/15 10:09:41;;;;;;;4.85;2.40;;;29.80;1.00;;;;;;5094120;28;20297;-82
2023/07/15 10:12:09;;;;;;;2.80;2.53;;;29.70;1.00;;;;;;5093863;28;20251;-83
2023/07/15 10:14:38;;;;;;;2.83;2.63;;;29.50;1.00;;;;;;5091240;28;20198;-85
2023/07/15 10:17:09;;;;;;;6.63;3.00;;;29.20;1.00;;;;;;5085378;28;20210;-84
2023/07/15 10:19:41;;;;;;;4.88;2.42;;;29.20;1.00;;;;;;5087758;28;20218;-83
2023/07/15 10:22:08;;;;;;;3.28;2.60;;;29.10;1.00;;;;;;5092580;28;20232;-82
2023/07/15 10:24:35;;;;;;;2.65;2.45;;;29.00;1.00;;;;;;5088520;28;20209;-83
2023/07/15 10:27:06;;;;;;;3.25;2.90;;;29.00;1.00;;;;;;5076995;28;20198;-83
2023/07/15 10:29:37;;;;;;;3.50;2.65;;;28.90;1.00;;;;;;5082209;28;20293;-84
2023/07/15 10:32:12;;;;;;;9.45;2.92;;;28.90;1.00;;;;;;5075194;28;20236;-83
2023/07/15 10:34:42;;;;;;;3.22;2.38;;;28.70;1.00;;;;;;5092911;28;20209;-85
2023/07/15 10:37:11;;;;;;;4.90;2.60;;;28.70;1.00;;;;;;5083830;28;20611;-84
2023/07/15 10:39:39;;;;;;;2.63;2.40;;;28.40;1.00;;;;;;5080706;28;20271;-83
2023/07/15 10:42:11;;;;;;;3.22;2.95;;;28.10;1.00;;;;;;5088728;28;20222;-84
2023/07/15 10:44:44;;;;;;;3.13;2.60;;;27.70;1.00;;;;;;5081496;28;20615;-84
2023/07/15 10:47:14;;;;;;;3.88;2.63;;;27.50;1.00;;;;;;5086560;28;20203;-85
2023/07/15 10:49:41;;;;;;;2.35;2.13;;;27.30;1.00;;;;;;5091965;28;20205;-80
2023/07/15 10:52:09;;;;;;;2.72;2.10;;;27.10;1.00;;;;;;5091486;28;20675;-84
2023/07/15 10:54:37;;;;;;;10.52;2.72;;;26.90;24.70;;;;;;5081958;28;20213;-84
2023/07/15 10:57:08;;;;;;;6.13;2.33;;;26.60;32.90;;;;;;5084524;28;20306;-84
2023/07/15 10:59:37;;;;;;;2.97;2.45;;;26.30;58.40;;;;;;5086093;28;20204;-83
2023/07/15 11:02:06;;;;;;;3.67;2.35;;;26.10;99.90;;;;;;5091457;28;20220;-83
2023/07/15 11:04:33;;;;;;;5.65;2.60;;;25.80;99.90;;;;;;5087135;28;20353;-81
2023/07/15 11:07:02;;;;;;;2.88;2.67;;;25.70;99.90;;;;;;5083606;28;20197;-85
2023/07/15 11:09:30;;;;;;;4.85;2.42;;;25.40;99.90;;;;;;5091055;28;20206;-81
2023/07/15 11:11:57;;;;;;;3.03;2.47;;;25.20;99.90;;;;;;5084843;28;20259;-84
2023/07/15 11:14:26;;;;;;;3.28;2.50;;;25.10;99.90;;;;;;5088496;28;20197;-82
2023/07/15 11:16:54;;;;;;;3.33;2.40;;;24.90;99.90;;;;;;5089193;28;20207;-85
2023/07/15 11:19:23;;;;;;;2.60;2.33;;;24.80;99.90;;;;;;5089833;28;20206;-86
2023/07/15 11:21:53;;;;;;;2.63;2.42;;;24.70;99.90;;;;;;5086915;28;20732;-82
2023/07/15 11:24:22;;;;;;;3.40;2.72;;;24.80;99.90;;;;;;5077185;28;20844;-84
2023/07/15 11:26:49;;;;;;;4.32;2.50;;;24.70;99.90;;;;;;5086065;28;20626;-83
2023/07/15 11:29:17;;;;;;;2.40;2.20;;;24.60;99.90;;;;;;5083463;28;20194;-84
2023/07/15 11:31:46;;;;;;;2.70;2.20;;;24.60;99.90;;;;;;5087847;28;20795;-82
2023/07/15 11:34:13;;;;;;;2.78;2.47;;;24.70;99.90;;;;;;5080962;28;20730;-84
2023/07/15 11:36:41;;;;;;;2.53;2.15;;;24.50;99.90;;;;;;5083731;28;20201;-84
2023/07/15 11:39:08;;;;;;;2.88;2.22;;;24.60;99.90;;;;;;5080277;28;20650;-83
2023/07/15 11:41:36;;;;;;;4.00;2.25;;;24.60;99.90;;;;;;5088534;28;20205;-83
2023/07/15 11:44:07;;;;;;;2.75;2.30;;;24.60;99.90;;;;;;5086933;28;20221;-84
2023/07/15 11:46:35;;;;;;;3.90;2.70;;;24.70;99.90;;;;;;5076497;28;20730;-85
2023/07/15 11:49:01;;;;;;;2.85;2.20;;;24.70;99.90;;;;;;5080380;28;20198;-82
2023/07/15 11:51:30;;;;;;;4.38;2.72;;;24.70;99.90;;;;;;5077691;28;20217;-83
2023/07/15 11:53:58;;;;;;;3.53;2.25;;;24.80;99.90;;;;;;5073825;28;20199;-81
2023/07/15 11:56:44;;;;;;;2.88;2.53;;;24.80;99.90;;;;;;5088340;28;20318;-83
2023/07/15 11:59:12;;;;;;;2.72;2.50;;;24.70;99.90;;;;;;5089515;28;20674;-83
2023/07/15 12:01:40;;;;;;;4.70;2.60;;;24.50;99.90;;;;;;5082235;28;21061;-84
2023/07/15 12:04:14;;;;;;;2.67;2.47;;;24.50;99.90;;;;;;5082469;28;20293;-81
2023/07/15 12:06:47;;;;;;;2.70;2.50;;;24.60;99.90;;;;;;5085006;28;20232;-84
2023/07/15 12:09:16;;;;;;;3.85;2.60;;;24.50;99.90;;;;;;5091618;28;20202;-85
2023/07/15 12:11:44;;;;;;;4.55;2.90;;;24.60;99.90;;;;;;5072525;28;20233;-84
2023/07/15 12:14:12;;;;;;;5.15;2.80;;;24.50;99.90;;;;;;5089096;28;20244;-84
2023/07/15 12:16:39;;;;;;;4.72;2.72;;;24.50;99.90;;;;;;5082437;28;20229;-81
2023/07/15 12:19:09;;;;;;;3.80;2.40;;;24.50;99.90;;;;;;5095364;28;20201;-82
2023/07/15 12:21:36;;;;;;;2.75;2.53;;;24.30;99.90;;;;;;5095239;28;20201;-81
2023/07/15 12:24:03;;;;;;;4.10;2.50;;;24.30;99.90;;;;;;5089670;28;20565;-83
2023/07/15 12:26:32;;;;;;;6.35;2.80;;;24.00;99.90;;;;;;5076644;28;20194;-82
2023/07/15 12:28:59;;;;;;;5.80;3.05;;;23.90;99.90;;;;;;5090068;28;20225;-80
2023/07/15 12:31:26;;;;;;;3.25;2.70;;;23.60;99.90;;;;;;5091949;28;20254;-84
2023/07/15 12:33:53;;;;;;;4.00;3.25;;;23.70;99.90;;;;;;5087047;28;20281;-82
2023/07/15 12:36:21;;;;;;;3.35;3.05;;;23.60;99.90;;;;;;5084265;28;20199;-83
2023/07/15 12:38:48;;;;;;;6.72;3.55;;;23.50;99.90;;;;;;5090957;28;20215;-85
2023/07/15 12:41:15;;;;;;;4.95;4.43;;;23.40;99.90;;;;;;5085757;28;20209;-83
2023/07/15 12:43:43;;;;;;;3.63;3.22;;;23.40;99.90;;;;;;5083778;28;20218;-83
2023/07/15 12:46:10;;;;;;;4.45;2.90;;;23.40;99.90;;;;;;5091389;28;20198;-83
2023/07/15 12:48:38;;;;;;;3.88;2.50;;;23.20;99.90;;;;;;5092791;28;20547;-80
2023/07/15 12:51:05;;;;;;;2.72;2.53;;;23.40;99.90;;;;;;5082631;28;20213;-83